»·PEaware :: N172TT KMHV-KSBA

N172TT :: KMHV-KSBA

FLIGHT INFORMATION

Flight Status: Arrived
Operator: Privately registered:
United States
More flights under this callsign
Pilot: Thomas T. (19955)
Aircraft: CESSNA 172 SKYHAWK
(C172)
More flights by this aircraft type
Origin: KMHV Mojave
United States
Destination: KSBA Santa Barbara Mun
United States
More flights between these airports :: More routes between these airports
Route: +
File this flight plan on PilotEdge
Remarks:
Altitude:
(Current/Filed)
6,500ft
Speed:
(Current/Filed)
0kts
Departed: 12-Sep-18 11:27 AM
Arrived: 12-Sep-18 12:50 PM
Distance/Time
Traveled:
91nm/1:23
Distance/Time
To Go:
Arrived

Flight Plot

Page will automatically refresh every two minutes.

Flight plan parsing failed; only flown route is shown


Map Options




Map Legend


Flown Route
Filed Route
Departure Airport
Arrival Airport
Navaid (VOR, NDB)
Fix

Horizontal Profiles

Position Reports

Time Latitude Longitude Heading Altitude Ground
Speed
12-Sep-18 11:18 35.056590 -118.150072 359 2760ft 0kts
12-Sep-18 11:19 35.056590 -118.150072 359 2760ft 0kts
12-Sep-18 11:20 35.056590 -118.150072 359 2760ft 0kts
12-Sep-18 11:21 35.056590 -118.150072 359 2760ft 0kts
12-Sep-18 11:22 35.056590 -118.150072 359 2760ft 0kts
12-Sep-18 11:23 35.056590 -118.150072 359 2760ft 0kts
12-Sep-18 11:24 35.057597 -118.147225 92 2760ft 18kts
12-Sep-18 11:25 35.057853 -118.142663 6 2760ft 0kts
12-Sep-18 11:26 35.057853 -118.142663 6 2760ft 0kts
12-Sep-18 11:27 35.057853 -118.142663 6 2760ft 0kts
12-Sep-18 11:28 35.058344 -118.142630 356 2760ft 0kts
12-Sep-18 11:29 35.059181 -118.146680 270 2769ft 60kts
12-Sep-18 11:30 35.058955 -118.166607 271 3422ft 64kts
12-Sep-18 11:31 35.054801 -118.191236 242 3981ft 90kts
12-Sep-18 11:32 35.040105 -118.217944 242 4240ft 98kts
12-Sep-18 11:33 35.025532 -118.244189 242 4471ft 81kts
12-Sep-18 11:34 35.011632 -118.268378 242 4973ft 90kts
12-Sep-18 11:35 35.002458 -118.294552 256 5463ft 81kts
12-Sep-18 11:36 34.995126 -118.319834 256 5955ft 78kts
12-Sep-18 11:37 34.988041 -118.343936 256 6444ft 74kts
12-Sep-18 11:38 34.980482 -118.370938 256 6566ft 95kts
12-Sep-18 11:39 34.972179 -118.402640 257 6562ft 100kts
12-Sep-18 11:40 34.963748 -118.435162 257 6555ft 101kts
12-Sep-18 11:41 34.955306 -118.467703 257 6547ft 101kts
12-Sep-18 11:42 34.946814 -118.500254 257 6539ft 101kts
12-Sep-18 11:43 34.938231 -118.532819 257 6531ft 101kts
12-Sep-18 11:44 34.920778 -118.559761 232 6614ft 103kts
12-Sep-18 11:45 34.901191 -118.584670 237 6704ft 101kts
12-Sep-18 11:46 34.883068 -118.610238 239 6662ft 106kts
12-Sep-18 11:47 34.865355 -118.638492 240 6641ft 104kts
12-Sep-18 11:48 34.848794 -118.665256 239 6636ft 104kts
12-Sep-18 11:49 34.831509 -118.693383 240 6642ft 104kts
12-Sep-18 11:50 34.816058 -118.722635 245 6647ft 102kts
12-Sep-18 11:51 34.801664 -118.751817 245 6652ft 102kts
12-Sep-18 11:52 34.786808 -118.781929 245 6656ft 105kts
12-Sep-18 11:53 34.771728 -118.812392 245 6659ft 106kts
12-Sep-18 11:54 34.756548 -118.843220 245 6660ft 107kts
12-Sep-18 11:55 34.741412 -118.874164 245 6756ft 101kts
12-Sep-18 11:56 34.728160 -118.900796 250 7247ft 90kts
12-Sep-18 11:57 34.717938 -118.928607 252 7741ft 91kts
12-Sep-18 11:58 34.709815 -118.956318 252 8240ft 85kts
12-Sep-18 11:59 34.702279 -118.984280 252 8530ft 95kts
12-Sep-18 12:00 34.694229 -119.016092 252 8534ft 101kts
12-Sep-18 12:01 34.684273 -119.048351 248 8535ft 103kts
12-Sep-18 12:02 34.688379 -119.081282 291 8527ft 108kts
12-Sep-18 12:03 34.703281 -119.113180 293 8527ft 110kts
12-Sep-18 12:04 34.718929 -119.145166 292 8527ft 110kts
12-Sep-18 12:05 34.734183 -119.177244 293 8526ft 110kts
12-Sep-18 12:06 34.748041 -119.210122 285 8526ft 108kts
12-Sep-18 12:07 34.757375 -119.244281 282 8524ft 108kts
12-Sep-18 12:08 34.767505 -119.280091 280 8526ft 114kts
12-Sep-18 12:09 34.777313 -119.317093 278 8529ft 115kts
12-Sep-18 12:10 34.785594 -119.354508 276 8532ft 115kts
12-Sep-18 12:11 34.785280 -119.391001 252 8536ft 108kts
12-Sep-18 12:12 34.779218 -119.426553 252 8536ft 107kts
12-Sep-18 12:13 34.766825 -119.457501 222 8537ft 103kts
12-Sep-18 12:14 34.745672 -119.480565 222 8535ft 103kts
12-Sep-18 12:15 34.724188 -119.503679 222 8530ft 103kts
12-Sep-18 12:16 34.705778 -119.523007 221 9089ft 79kts
12-Sep-18 12:17 34.689516 -119.539340 226 9674ft 73kts
12-Sep-18 12:18 34.677555 -119.557233 236 10243ft 67kts
12-Sep-18 12:19 34.667131 -119.579145 256 10456ft 92kts
12-Sep-18 12:20 34.663599 -119.611487 259 10491ft 100kts
12-Sep-18 12:21 34.660086 -119.644988 259 10477ft 102kts
12-Sep-18 12:22 34.656551 -119.678767 259 10484ft 102kts
12-Sep-18 12:23 34.652819 -119.712721 257 10495ft 102kts
12-Sep-18 12:24 34.646349 -119.746011 249 10505ft 101kts
12-Sep-18 12:25 34.636669 -119.777957 248 10513ft 101kts
12-Sep-18 12:26 34.626139 -119.810818 247 10363ft 107kts
12-Sep-18 12:27 34.613772 -119.844374 243 10119ft 111kts
12-Sep-18 12:28 34.599901 -119.878341 242 9825ft 113kts
12-Sep-18 12:29 34.585485 -119.912464 242 9529ft 114kts
12-Sep-18 12:30 34.570721 -119.947529 243 8987ft 119kts
12-Sep-18 12:31 34.554394 -119.982991 240 8142ft 123kts
12-Sep-18 12:32 34.537213 -120.019303 240 7245ft 125kts
12-Sep-18 12:33 34.520111 -120.056431 240 6344ft 127kts
12-Sep-18 12:34 34.500203 -120.091646 220 5443ft 129kts
12-Sep-18 12:35 34.474101 -120.121187 218 4534ft 128kts
12-Sep-18 12:36 34.441895 -120.134879 186 3637ft 123kts
12-Sep-18 12:37 34.408166 -120.131634 166 2737ft 124kts
12-Sep-18 12:38 34.410223 -120.101948 3 1811ft 135kts
12-Sep-18 12:39 34.443100 -120.111432 307 1303ft 107kts
12-Sep-18 12:40 34.431737 -120.130024 173 1294ft 86kts
12-Sep-18 12:41 34.419483 -120.106116 77 1127ft 101kts
12-Sep-18 12:42 34.427743 -120.073208 75 929ft 103kts
12-Sep-18 12:43 34.436008 -120.043001 74 984ft 91kts
12-Sep-18 12:44 34.441090 -120.011681 90 988ft 102kts
12-Sep-18 12:45 34.439557 -119.977985 106 986ft 99kts
12-Sep-18 12:46 34.431949 -119.944802 112 988ft 103kts
12-Sep-18 12:47 34.422884 -119.912578 107 988ft 104kts
12-Sep-18 12:48 34.418599 -119.879084 98 989ft 104kts
12-Sep-18 12:49 34.417610 -119.845679 94 978ft 88kts
12-Sep-18 12:50 34.417749 -119.825590 93 983ft 78kts
12-Sep-18 12:51 34.428610 -119.818899 262 446ft 74kts
12-Sep-18 12:52 34.427904 -119.838826 305 16ft 15kts
12-Sep-18 12:53 34.428492 -119.838997 346 16ft 0kts
12-Sep-18 12:54 34.430955 -119.838887 23 16ft 16kts

Navigation Log

Ident Type
Flight plan parsing failed, navigation log unavailable